createdAt,value
2023-06-07T00:00:08.472Z,68.00
2023-06-07T00:00:40.409Z,68.00
2023-06-07T00:01:13.634Z,68.00
2023-06-07T00:01:45.570Z,67.00
2023-06-07T00:02:26.250Z,67.00
2023-06-07T00:03:02.486Z,66.33
2023-06-07T00:03:35.098Z,66.00
2023-06-07T00:04:07.849Z,66.00
2023-06-07T00:04:41.026Z,66.00
2023-06-07T00:05:16.168Z,66.00
2023-06-07T00:05:48.536Z,66.00
2023-06-07T00:06:20.724Z,65.00
2023-06-07T00:07:02.022Z,64.67
2023-06-07T00:07:36.770Z,63.33
2023-06-07T00:08:08.720Z,62.00
2023-06-07T00:08:40.915Z,62.00
2023-06-07T00:09:12.860Z,61.67
2023-06-07T00:09:44.788Z,62.00
2023-06-07T00:10:16.847Z,61.00
2023-06-07T00:10:48.782Z,61.00
2023-06-07T00:11:22.418Z,61.00
2023-06-07T00:11:54.558Z,61.00
2023-06-07T00:12:26.584Z,61.00
2023-06-07T00:12:58.490Z,60.33
2023-06-07T00:13:30.467Z,60.00
2023-06-07T00:14:02.530Z,60.00
2023-06-07T00:14:34.470Z,60.00
2023-06-07T00:15:07.074Z,60.00
2023-06-07T00:15:39.019Z,60.00
2023-06-07T00:16:11.711Z,60.33
2023-06-07T00:16:46.116Z,61.00
2023-06-07T00:17:18.147Z,61.00
2023-06-07T00:17:50.250Z,60.00
2023-06-07T00:18:22.385Z,60.00
2023-06-07T00:18:54.321Z,60.00
2023-06-07T00:19:30.908Z,60.00
2023-06-07T00:20:02.999Z,59.67
2023-06-07T00:20:35.133Z,59.00
2023-06-07T00:21:07.372Z,57.67
2023-06-07T00:21:39.838Z,57.00
2023-06-07T00:22:14.059Z,56.00
2023-06-07T00:22:48.653Z,55.33
2023-06-07T00:23:21.971Z,55.00
2023-06-07T00:23:53.915Z,55.33
2023-06-07T00:24:25.872Z,56.00
2023-06-07T00:24:57.831Z,55.00
2023-06-07T00:25:29.805Z,53.67
2023-06-07T00:26:01.964Z,52.67
2023-06-07T00:26:34.414Z,52.00
2023-06-07T00:27:06.387Z,51.33
2023-06-07T00:27:38.328Z,51.00
2023-06-07T00:28:10.656Z,51.00
2023-06-07T00:28:42.565Z,52.00
2023-06-07T00:29:16.069Z,52.00
2023-06-07T00:29:48.033Z,52.67
2023-06-07T00:30:20.413Z,53.00
2023-06-07T00:30:52.422Z,53.00
2023-06-07T00:31:24.373Z,53.00
2023-06-07T00:31:56.309Z,53.33
2023-06-07T00:32:28.244Z,54.00
2023-06-07T00:33:00.483Z,54.00
2023-06-07T00:33:32.676Z,54.00
2023-06-07T00:34:05.170Z,54.67
2023-06-07T00:34:37.093Z,55.00
2023-06-07T00:35:09.460Z,56.00
2023-06-07T00:35:41.349Z,55.67
2023-06-07T00:36:13.275Z,55.00
2023-06-07T00:36:45.207Z,55.00
2023-06-07T00:37:17.174Z,54.00
2023-06-07T00:37:49.104Z,54.00
2023-06-07T00:38:21.016Z,54.33
2023-06-07T00:38:52.937Z,55.00
2023-06-07T00:39:25.993Z,55.33
2023-06-07T00:39:57.917Z,57.00
2023-06-07T00:40:29.833Z,58.67
2023-06-07T00:41:01.770Z,61.00
2023-06-07T00:41:33.682Z,62.00
2023-06-07T00:42:07.108Z,64.00
2023-06-07T00:42:39.035Z,66.33
2023-06-07T00:43:10.967Z,69.00
2023-06-07T00:43:44.202Z,71.33
2023-06-07T00:44:17.690Z,71.00
2023-06-07T00:44:49.593Z,70.00
2023-06-07T00:45:21.507Z,70.00
2023-06-07T00:45:53.485Z,69.00
2023-06-07T00:46:29.215Z,68.67
2023-06-07T00:47:01.507Z,68.00
2023-06-07T00:47:34.095Z,68.00
2023-06-07T00:48:06.378Z,68.00
2023-06-07T00:48:38.580Z,68.33
2023-06-07T00:49:11.818Z,69.00
2023-06-07T00:49:44.990Z,69.00
2023-06-07T00:50:16.933Z,68.67
2023-06-07T00:50:49.042Z,68.00
2023-06-07T00:51:21.207Z,68.00
2023-06-07T00:51:53.447Z,68.00
2023-06-07T00:52:25.804Z,68.00
2023-06-07T00:52:58.039Z,69.00
2023-06-07T00:53:30.856Z,69.00
2023-06-07T00:54:06.554Z,69.00
2023-06-07T00:54:38.837Z,69.00
2023-06-07T00:55:13.220Z,69.67
2023-06-07T00:55:45.388Z,70.00
2023-06-07T00:56:17.481Z,71.00
2023-06-07T00:56:50.791Z,71.67
2023-06-07T00:57:22.918Z,72.00
2023-06-07T00:57:55.896Z,72.00
2023-06-07T00:58:29.055Z,74.00
2023-06-07T00:59:00.961Z,75.33
2023-06-07T00:59:32.909Z,76.33
2023-06-07T01:00:14.389Z,77.00
2023-06-07T01:00:46.820Z,78.67
2023-06-07T01:01:21.860Z,78.33
2023-06-07T01:01:54.378Z,78.00
2023-06-07T01:02:27.437Z,77.33
2023-06-07T01:02:59.414Z,76.67
2023-06-07T01:03:32.344Z,75.33
2023-06-07T01:04:07.046Z,73.67
2023-06-07T01:04:41.150Z,72.67
2023-06-07T01:05:14.079Z,71.33
2023-06-07T01:05:46.081Z,70.00
2023-06-07T01:06:18.102Z,70.00
2023-06-07T01:06:50.509Z,70.00
2023-06-07T01:07:26.035Z,70.00
2023-06-07T01:07:58.211Z,70.00
2023-06-07T01:08:31.556Z,70.00
2023-06-07T01:09:04.287Z,70.00
2023-06-07T01:09:36.913Z,71.00
2023-06-07T01:10:09.454Z,71.67
2023-06-07T01:10:41.673Z,72.00
2023-06-07T01:11:14.383Z,72.33
2023-06-07T01:11:49.526Z,73.33
2023-06-07T01:12:24.059Z,74.00
2023-06-07T01:12:58.205Z,75.00
2023-06-07T01:13:31.061Z,75.00
2023-06-07T01:14:03.614Z,74.33
2023-06-07T01:14:36.071Z,72.00
2023-06-07T01:15:08.594Z,69.00
2023-06-07T01:15:41.341Z,66.33
2023-06-07T01:16:14.387Z,65.00
2023-06-07T01:16:49.853Z,64.00
2023-06-07T01:17:26.181Z,64.00
2023-06-07T01:17:59.218Z,64.00
2023-06-07T01:18:31.251Z,64.00
2023-06-07T01:19:05.401Z,63.33
2023-06-07T01:19:37.952Z,63.67
2023-06-07T01:20:14.414Z,64.00
2023-06-07T01:20:55.626Z,63.00
2023-06-07T01:21:27.572Z,64.00
2023-06-07T01:22:06.025Z,64.00
2023-06-07T01:22:38.746Z,64.00
2023-06-07T01:23:12.407Z,64.00
2023-06-07T01:23:44.411Z,64.00
2023-06-07T01:24:19.704Z,63.67
2023-06-07T01:24:51.903Z,64.00
2023-06-07T01:25:24.396Z,64.00
2023-06-07T01:26:01.083Z,64.00
2023-06-07T01:26:33.106Z,64.00
2023-06-07T01:27:08.283Z,64.00
2023-06-07T01:27:42.479Z,64.00
2023-06-07T01:28:15.620Z,64.00
2023-06-07T01:28:49.076Z,64.00
2023-06-07T01:29:22.443Z,64.00
2023-06-07T01:29:59.293Z,64.00
2023-06-07T01:30:32.911Z,64.00
2023-06-07T01:31:05.401Z,64.00
2023-06-07T01:31:39.071Z,64.00
2023-06-07T01:32:13.539Z,63.33
2023-06-07T01:32:46.989Z,63.67
2023-06-07T01:33:19.700Z,64.00
2023-06-07T01:33:52.862Z,64.00
2023-06-07T01:34:25.658Z,64.00
2023-06-07T01:34:58.290Z,64.00
2023-06-07T01:35:31.293Z,64.00
2023-06-07T01:36:05.016Z,64.00
2023-06-07T01:36:37.938Z,63.67
2023-06-07T01:37:11.174Z,62.67
2023-06-07T01:37:44.002Z,62.00
2023-06-07T01:38:18.504Z,61.33
2023-06-07T01:38:51.175Z,62.00
2023-06-07T01:39:25.110Z,62.00
2023-06-07T01:39:57.318Z,61.33
2023-06-07T01:40:29.834Z,61.00
2023-06-07T01:41:02.969Z,61.00
2023-06-07T01:41:36.442Z,61.00
2023-06-07T01:42:10.192Z,60.33
2023-06-07T01:42:42.463Z,60.00
2023-06-07T01:43:15.474Z,59.33
2023-06-07T01:43:49.551Z,59.00
2023-06-07T01:44:21.717Z,58.00
2023-06-07T01:44:54.945Z,58.00
2023-06-07T01:45:27.080Z,57.00
2023-06-07T01:45:59.998Z,57.00
2023-06-07T01:46:32.072Z,57.00
2023-06-07T01:47:04.639Z,57.00
2023-06-07T01:47:36.611Z,57.00
2023-06-07T01:48:09.952Z,57.00
2023-06-07T01:48:41.924Z,57.00
2023-06-07T01:49:14.865Z,57.00
2023-06-07T01:49:46.822Z,57.00
2023-06-07T01:50:22.836Z,57.33
2023-06-07T01:50:54.750Z,58.00
2023-06-07T01:51:26.636Z,58.00
2023-06-07T01:51:58.560Z,58.00
2023-06-07T01:52:30.587Z,57.33
2023-06-07T01:53:02.504Z,57.00
2023-06-07T01:53:34.877Z,57.00
2023-06-07T01:54:07.464Z,57.00
2023-06-07T01:54:40.362Z,57.00
2023-06-07T01:55:12.375Z,56.33
2023-06-07T01:55:44.322Z,56.00
2023-06-07T01:56:34.653Z,56.00
2023-06-07T01:57:27.617Z,55.00
2023-06-07T01:58:20.311Z,55.00
2023-06-07T01:59:25.218Z,55.00
2023-06-07T02:00:23.169Z,55.00
2023-06-07T02:01:34.855Z,56.00
2023-06-07T02:02:21.632Z,60.00
2023-06-07T02:02:59.156Z,60.33
2023-06-07T02:03:36.548Z,61.00
2023-06-07T02:04:12.695Z,61.00
2023-06-07T02:04:47.582Z,62.67
2023-06-07T02:05:30.424Z,63.67
2023-06-07T02:06:09.330Z,65.00
2023-06-07T02:06:45.387Z,65.00
2023-06-07T02:07:25.013Z,65.00
2023-06-07T02:08:00.839Z,65.00
2023-06-07T02:08:40.848Z,64.00
2023-06-07T02:09:14.024Z,64.00
2023-06-07T02:09:49.148Z,64.00
2023-06-07T02:10:24.535Z,64.00
2023-06-07T02:10:57.728Z,63.67
2023-06-07T02:11:31.964Z,63.00
2023-06-07T02:12:05.286Z,63.00
2023-06-07T02:12:38.134Z,63.00
2023-06-07T02:13:11.267Z,63.00
2023-06-07T02:13:44.112Z,62.33
2023-06-07T02:14:17.438Z,62.00
2023-06-07T02:14:53.794Z,62.00
2023-06-07T02:15:25.920Z,61.67
2023-06-07T02:15:57.904Z,60.67
2023-06-07T02:16:37.313Z,60.00
2023-06-07T02:17:09.784Z,59.00
2023-06-07T02:17:59.015Z,59.00
2023-06-07T02:18:32.227Z,59.00
2023-06-07T02:19:08.397Z,58.67
2023-06-07T02:19:41.166Z,57.67
2023-06-07T02:20:13.227Z,57.00
2023-06-07T02:20:45.157Z,57.00
2023-06-07T02:21:17.081Z,57.00
2023-06-07T02:21:48.992Z,57.00
2023-06-07T02:22:20.906Z,57.00
2023-06-07T02:22:52.859Z,56.67
2023-06-07T02:23:25.047Z,55.67
2023-06-07T02:23:57.167Z,55.00
2023-06-07T02:24:29.210Z,55.00
2023-06-07T02:25:01.142Z,54.33
2023-06-07T02:25:33.535Z,53.00
2023-06-07T02:26:05.832Z,52.67
2023-06-07T02:26:38.207Z,53.00
2023-06-07T02:27:10.181Z,53.00
2023-06-07T02:27:42.100Z,53.00
2023-06-07T02:28:14.090Z,53.67
2023-06-07T02:28:46.004Z,54.00
2023-06-07T02:29:18.147Z,54.67
2023-06-07T02:29:50.042Z,55.33
2023-06-07T02:30:22.058Z,56.00
2023-06-07T02:30:56.801Z,56.00
2023-06-07T02:31:28.944Z,56.00
2023-06-07T02:32:02.144Z,56.00
2023-06-07T02:32:34.758Z,56.67
2023-06-07T02:33:08.205Z,57.00
2023-06-07T02:33:40.224Z,57.33
2023-06-07T02:34:12.157Z,58.00
2023-06-07T02:34:44.516Z,59.00
2023-06-07T02:35:19.699Z,60.33
2023-06-07T02:35:51.808Z,61.67
2023-06-07T02:36:24.293Z,62.00
2023-06-07T02:36:56.241Z,63.00
2023-06-07T02:37:29.732Z,63.00
2023-06-07T02:38:01.699Z,64.00
2023-06-07T02:38:33.631Z,64.33
2023-06-07T02:39:05.548Z,65.00
2023-06-07T02:39:37.481Z,65.00
2023-06-07T02:40:13.243Z,65.00
2023-06-07T02:40:45.175Z,64.00
2023-06-07T02:41:17.082Z,64.00
2023-06-07T02:41:49.018Z,64.00
2023-06-07T02:42:20.961Z,64.00
2023-06-07T02:42:52.921Z,63.00
2023-06-07T02:43:24.897Z,63.00
2023-06-07T02:43:56.828Z,63.00
2023-06-07T02:44:29.414Z,63.00
2023-06-07T02:45:03.047Z,63.00
2023-06-07T02:45:35.034Z,63.00
2023-06-07T02:46:08.000Z,63.00
2023-06-07T02:46:39.990Z,63.00
2023-06-07T02:47:12.009Z,63.00
2023-06-07T02:47:44.734Z,63.67
2023-06-07T02:48:17.582Z,64.00
2023-06-07T02:48:49.505Z,64.00
2023-06-07T02:49:21.533Z,64.00
2023-06-07T02:49:53.442Z,64.00
2023-06-07T02:50:25.629Z,64.00
2023-06-07T02:50:57.540Z,64.00
2023-06-07T02:51:29.456Z,64.00
2023-06-07T02:52:01.373Z,64.00
2023-06-07T02:52:34.884Z,64.00
2023-06-07T02:53:08.552Z,64.33
2023-06-07T02:53:40.470Z,65.00
2023-06-07T02:54:12.469Z,65.67
2023-06-07T02:54:44.522Z,66.67
2023-06-07T02:55:16.533Z,68.00
2023-06-07T02:55:48.456Z,69.00
2023-06-07T02:56:20.410Z,70.00
2023-06-07T02:56:52.321Z,70.67
2023-06-07T02:57:24.267Z,72.00
2023-06-07T02:57:56.214Z,76.67
2023-06-07T02:58:28.462Z,91.33
2023-06-07T02:59:00.439Z,105.67
2023-06-07T02:59:32.372Z,108.00
2023-06-07T03:00:12.059Z,114.00
2023-06-07T03:00:51.012Z,120.67
2023-06-07T03:01:23.348Z,126.67
2023-06-07T03:01:55.364Z,120.67
2023-06-07T03:02:27.401Z,116.00
2023-06-07T03:02:59.501Z,116.33
2023-06-07T03:03:31.753Z,123.33
2023-06-07T03:04:03.706Z,124.33
2023-06-07T03:04:35.639Z,122.00
2023-06-07T03:05:08.584Z,115.33
2023-06-07T03:05:42.393Z,113.33
2023-06-07T03:06:16.343Z,112.00
2023-06-07T03:06:49.700Z,109.67
2023-06-07T03:07:21.770Z,106.00
2023-06-07T03:07:53.996Z,99.67
2023-06-07T03:08:25.965Z,92.67
2023-06-07T03:08:58.101Z,85.67
2023-06-07T03:09:30.013Z,81.33
2023-06-07T03:10:05.181Z,78.33
2023-06-07T03:10:37.881Z,76.00
2023-06-07T03:11:09.770Z,74.00
2023-06-07T03:11:41.674Z,72.33
2023-06-07T03:12:13.578Z,70.67
2023-06-07T03:12:45.505Z,71.00
2023-06-07T03:13:17.418Z,70.00
2023-06-07T03:13:49.354Z,69.00
2023-06-07T03:14:21.256Z,67.00
2023-06-07T03:14:53.159Z,65.33
2023-06-07T03:15:25.056Z,66.00
2023-06-07T03:15:56.981Z,66.00
2023-06-07T03:16:29.515Z,65.67
2023-06-07T03:17:04.019Z,66.00
2023-06-07T03:17:37.338Z,67.00
2023-06-07T03:18:10.053Z,66.33
2023-06-07T03:18:41.970Z,65.33
2023-06-07T03:19:14.834Z,65.00
2023-06-07T03:19:46.751Z,64.67
2023-06-07T03:20:19.337Z,65.67
2023-06-07T03:20:51.264Z,66.00
2023-06-07T03:21:23.204Z,65.67
2023-06-07T03:21:55.141Z,65.00
2023-06-07T03:22:27.054Z,65.00
2023-06-07T03:22:58.952Z,65.00
2023-06-07T03:23:31.509Z,65.00
2023-06-07T03:24:03.578Z,65.00
2023-06-07T03:24:37.774Z,65.00
2023-06-07T03:25:10.262Z,65.00
2023-06-07T03:25:42.243Z,65.00
2023-06-07T03:26:14.255Z,66.00
2023-06-07T03:26:46.297Z,67.67
2023-06-07T03:27:18.674Z,69.00
2023-06-07T03:27:50.661Z,69.00
2023-06-07T03:28:24.019Z,69.00
2023-06-07T03:28:56.041Z,69.00
2023-06-07T03:29:28.341Z,69.67
2023-06-07T03:30:03.414Z,70.33
2023-06-07T03:30:35.717Z,71.00
2023-06-07T03:31:07.662Z,71.00
2023-06-07T03:31:39.601Z,71.00
2023-06-07T03:32:11.608Z,71.00
2023-06-07T03:32:44.638Z,72.33
2023-06-07T03:33:16.731Z,73.33
2023-06-07T03:33:48.673Z,75.00
2023-06-07T03:34:21.147Z,78.67
2023-06-07T03:34:53.044Z,81.67
2023-06-07T03:35:24.966Z,90.33
2023-06-07T03:35:57.501Z,90.00
2023-06-07T03:36:32.215Z,95.33
2023-06-07T03:37:04.289Z,95.67
2023-06-07T03:37:36.265Z,91.67
2023-06-07T03:38:08.199Z,90.00
2023-06-07T03:38:40.150Z,89.00
2023-06-07T03:39:12.168Z,89.33
2023-06-07T03:39:44.095Z,88.67
2023-06-07T03:40:16.466Z,87.00
2023-06-07T03:40:48.370Z,84.67
2023-06-07T03:41:20.281Z,83.67
2023-06-07T03:41:52.189Z,79.67
2023-06-07T03:42:24.106Z,74.67
2023-06-07T03:42:56.132Z,71.67
2023-06-07T03:43:28.038Z,69.67
2023-06-07T03:44:00.002Z,70.67
2023-06-07T03:44:31.956Z,71.00
2023-06-07T03:45:04.537Z,71.00
2023-06-07T03:45:36.485Z,70.00
2023-06-07T03:46:08.421Z,70.00
2023-06-07T03:46:41.372Z,69.00
2023-06-07T03:47:13.291Z,67.00
2023-06-07T03:47:45.226Z,67.33
2023-06-07T03:48:17.262Z,68.00
2023-06-07T03:48:51.140Z,67.67
2023-06-07T03:49:24.848Z,65.67
2023-06-07T03:49:56.763Z,64.67
2023-06-07T03:50:28.678Z,65.00
2023-06-07T03:51:00.606Z,64.00
2023-06-07T03:51:34.136Z,64.00
2023-06-07T03:52:06.561Z,63.00
2023-06-07T03:52:38.501Z,62.00
2023-06-07T03:53:10.426Z,60.67
2023-06-07T03:53:42.313Z,58.33
2023-06-07T03:54:15.085Z,57.33
2023-06-07T03:54:46.998Z,59.67
2023-06-07T03:55:21.201Z,62.00
2023-06-07T03:55:56.091Z,67.67
2023-06-07T03:56:28.016Z,70.00
2023-06-07T03:56:59.970Z,69.33
2023-06-07T03:57:31.920Z,68.67
2023-06-07T03:58:03.851Z,68.00
2023-06-07T03:58:37.182Z,66.67
2023-06-07T03:59:09.183Z,65.33
2023-06-07T03:59:44.194Z,64.33
2023-06-07T04:00:18.511Z,63.67
2023-06-07T04:00:50.427Z,64.00
2023-06-07T04:01:26.499Z,64.00
2023-06-07T04:01:58.516Z,65.00
2023-06-07T04:02:31.295Z,71.00
2023-06-07T04:03:03.372Z,74.33
2023-06-07T04:03:35.734Z,78.67
2023-06-07T04:04:09.517Z,79.67
2023-06-07T04:04:41.533Z,78.33
2023-06-07T04:05:13.971Z,78.67
2023-06-07T04:05:46.786Z,80.33
2023-06-07T04:06:21.657Z,79.00
2023-06-07T04:06:53.573Z,76.33
2023-06-07T04:07:25.494Z,74.00
2023-06-07T04:08:00.654Z,74.00
2023-06-07T04:08:32.863Z,74.00
2023-06-07T04:09:05.002Z,74.00
2023-06-07T04:09:36.998Z,73.00
2023-06-07T04:10:09.009Z,73.33
2023-06-07T04:10:42.251Z,74.00
2023-06-07T04:11:14.158Z,74.00
2023-06-07T04:11:46.295Z,74.67
2023-06-07T04:12:18.660Z,75.00
2023-06-07T04:12:50.584Z,75.00
2023-06-07T04:13:22.496Z,74.00
2023-06-07T04:13:54.543Z,73.33
2023-06-07T04:14:26.420Z,76.00
2023-06-07T04:14:58.324Z,76.00
2023-06-07T04:15:30.334Z,75.67
2023-06-07T04:16:02.310Z,74.67
2023-06-07T04:16:34.350Z,71.67
2023-06-07T04:17:06.758Z,70.00
2023-06-07T04:17:38.762Z,66.67
2023-06-07T04:18:10.737Z,64.00
2023-06-07T04:18:42.732Z,63.33
2023-06-07T04:19:14.653Z,61.33
2023-06-07T04:19:51.330Z,59.67
2023-06-07T04:20:23.576Z,58.00
2023-06-07T04:20:55.514Z,58.67
2023-06-07T04:21:27.448Z,57.00
2023-06-07T04:21:59.991Z,56.00
2023-06-07T04:22:32.688Z,57.00
2023-06-07T04:23:04.581Z,57.33
2023-06-07T04:23:36.566Z,58.00
2023-06-07T04:24:08.600Z,58.00
2023-06-07T04:24:40.636Z,58.33
2023-06-07T04:25:12.793Z,57.33
2023-06-07T04:25:44.751Z,56.00
2023-06-07T04:26:19.802Z,55.00
2023-06-07T04:26:54.518Z,55.67
2023-06-07T04:27:30.885Z,56.00
2023-06-07T04:28:03.296Z,56.67
2023-06-07T04:28:35.558Z,56.00
2023-06-07T04:29:08.525Z,56.00
2023-06-07T04:29:41.951Z,55.33
2023-06-07T04:30:13.944Z,55.00
2023-06-07T04:30:46.879Z,55.33
2023-06-07T04:31:18.952Z,56.00
2023-06-07T04:31:53.730Z,57.00
2023-06-07T04:32:26.502Z,56.33
2023-06-07T04:32:59.572Z,57.67
2023-06-07T04:33:33.548Z,60.67
2023-06-07T04:34:06.100Z,63.67
2023-06-07T04:34:43.298Z,65.67
2023-06-07T04:35:15.772Z,66.33
2023-06-07T04:35:48.065Z,66.00
2023-06-07T04:36:20.065Z,66.67
2023-06-07T04:36:52.236Z,67.00
2023-06-07T04:37:26.092Z,66.00
2023-06-07T04:37:58.837Z,66.00
2023-06-07T04:38:31.115Z,66.00
2023-06-07T04:39:04.228Z,66.67
2023-06-07T04:39:37.691Z,67.00
2023-06-07T04:40:11.152Z,67.67
2023-06-07T04:40:43.817Z,68.00
2023-06-07T04:41:15.740Z,68.33
2023-06-07T04:41:47.966Z,69.00
2023-06-07T04:42:20.833Z,68.33
2023-06-07T04:43:08.411Z,67.67
2023-06-07T04:43:40.323Z,67.00
2023-06-07T04:44:16.438Z,66.67
2023-06-07T04:44:48.506Z,66.33
2023-06-07T04:45:29.685Z,67.67
2023-06-07T04:46:02.436Z,69.00
2023-06-07T04:46:34.656Z,69.00
2023-06-07T04:47:12.753Z,68.33
2023-06-07T04:47:46.866Z,68.00
2023-06-07T04:48:21.404Z,67.00
2023-06-07T04:48:53.901Z,66.67
2023-06-07T04:49:27.132Z,66.00
2023-06-07T04:50:00.418Z,66.00
2023-06-07T04:50:32.565Z,65.33
2023-06-07T04:51:05.381Z,63.67
2023-06-07T04:51:39.897Z,60.00
2023-06-07T04:52:13.899Z,57.00
2023-06-07T04:52:46.010Z,55.33
2023-06-07T04:53:21.049Z,54.33
2023-06-07T04:53:59.507Z,52.67
2023-06-07T04:54:32.381Z,51.00
2023-06-07T04:55:05.520Z,52.00
2023-06-07T04:55:38.584Z,52.67
2023-06-07T04:56:11.175Z,53.00
2023-06-07T04:56:43.135Z,53.00
2023-06-07T04:57:15.146Z,53.67
2023-06-07T04:57:47.070Z,53.00
2023-06-07T04:58:20.244Z,51.67
2023-06-07T04:58:53.602Z,49.33
2023-06-07T04:59:26.576Z,48.67
2023-06-07T04:59:58.485Z,46.00
2023-06-07T05:00:33.136Z,42.33
2023-06-07T05:01:05.086Z,41.33
2023-06-07T05:01:37.240Z,43.33
2023-06-07T05:02:09.686Z,45.00
2023-06-07T05:02:44.839Z,50.00
2023-06-07T05:03:22.882Z,52.00
2023-06-07T05:04:01.559Z,52.00
2023-06-07T05:04:33.502Z,52.00
2023-06-07T05:05:05.862Z,54.33
2023-06-07T05:05:38.214Z,57.33
2023-06-07T05:06:10.166Z,65.00
2023-06-07T05:06:42.108Z,66.67
2023-06-07T05:07:15.135Z,65.33
2023-06-07T05:07:48.040Z,64.67
2023-06-07T05:08:20.505Z,64.00
2023-06-07T05:08:52.424Z,63.33
2023-06-07T05:09:24.379Z,62.67
2023-06-07T05:09:56.595Z,62.00
2023-06-07T05:10:28.918Z,62.00
2023-06-07T05:11:00.929Z,62.00
2023-06-07T05:11:32.845Z,62.67
2023-06-07T05:12:04.933Z,63.00
2023-06-07T05:12:36.919Z,63.67
2023-06-07T05:13:08.937Z,65.00
2023-06-07T05:13:40.843Z,65.00
2023-06-07T05:14:12.744Z,65.00
2023-06-07T05:14:44.643Z,65.33
2023-06-07T05:15:16.601Z,66.67
2023-06-07T05:15:51.906Z,67.33
2023-06-07T05:16:25.798Z,67.00
2023-06-07T05:16:58.125Z,66.67
2023-06-07T05:17:30.770Z,66.00
2023-06-07T05:18:03.780Z,66.67
2023-06-07T05:18:37.291Z,66.67
2023-06-07T05:19:09.242Z,66.00
2023-06-07T05:19:41.150Z,65.67
2023-06-07T05:20:14.999Z,65.00
2023-06-07T05:20:49.700Z,62.33
2023-06-07T05:21:21.615Z,60.00
2023-06-07T05:21:53.528Z,59.00
2023-06-07T05:22:25.456Z,59.00
2023-06-07T05:22:58.118Z,58.33
2023-06-07T05:23:30.139Z,58.00
2023-06-07T05:24:02.247Z,58.00
2023-06-07T05:24:34.293Z,58.00
2023-06-07T05:25:06.927Z,58.00
2023-06-07T05:25:40.127Z,58.00
2023-06-07T05:26:12.350Z,58.00
2023-06-07T05:26:44.300Z,58.00
2023-06-07T05:27:16.708Z,57.67
2023-06-07T05:28:03.881Z,57.00
2023-06-07T05:28:42.305Z,57.00
2023-06-07T05:29:14.700Z,58.33
2023-06-07T05:29:46.946Z,60.00
2023-06-07T05:30:18.938Z,64.00
2023-06-07T05:30:51.348Z,68.00
2023-06-07T05:31:24.420Z,69.33
2023-06-07T05:31:57.039Z,77.33
2023-06-07T05:32:29.039Z,98.33
2023-06-07T05:33:01.057Z,128.00
2023-06-07T05:33:33.173Z,134.67
2023-06-07T05:34:05.105Z,128.33
2023-06-07T05:34:37.031Z,119.00
2023-06-07T05:35:09.696Z,117.00
2023-06-07T05:35:46.229Z,123.67
2023-06-07T05:36:18.167Z,114.67
2023-06-07T05:36:50.352Z,111.67
2023-06-07T05:37:22.258Z,106.67
2023-06-07T05:37:54.176Z,102.67
2023-06-07T05:38:26.329Z,101.33
2023-06-07T05:38:59.637Z,98.67
2023-06-07T05:39:31.541Z,94.67
2023-06-07T05:40:06.658Z,91.00
2023-06-07T05:40:38.872Z,88.00
2023-06-07T05:41:10.795Z,85.67
2023-06-07T05:41:43.442Z,78.67
2023-06-07T05:42:15.403Z,74.33
2023-06-07T05:42:47.444Z,75.67
2023-06-07T05:43:19.358Z,78.00
2023-06-07T05:43:51.264Z,85.33
2023-06-07T05:44:23.185Z,107.00
2023-06-07T05:44:55.629Z,124.00
2023-06-07T05:45:27.663Z,112.00
2023-06-07T05:45:59.662Z,105.67
2023-06-07T05:46:31.627Z,100.00
2023-06-07T05:47:03.596Z,94.33
2023-06-07T05:47:35.710Z,95.33
2023-06-07T05:48:08.260Z,100.67
2023-06-07T05:48:40.298Z,103.00
2023-06-07T05:49:12.193Z,106.00
2023-06-07T05:49:45.196Z,113.00
2023-06-07T05:50:20.644Z,109.67
2023-06-07T05:50:53.345Z,109.33
2023-06-07T05:51:25.319Z,105.67
2023-06-07T05:51:57.840Z,94.00
2023-06-07T05:52:29.800Z,77.33
2023-06-07T05:53:01.700Z,66.33
2023-06-07T05:53:33.621Z,60.67
2023-06-07T05:54:08.152Z,61.33
2023-06-07T05:54:40.233Z,61.33
2023-06-07T05:55:12.179Z,63.67
2023-06-07T05:55:46.510Z,60.00
2023-06-07T05:56:20.015Z,53.67
2023-06-07T05:56:54.278Z,54.67
2023-06-07T05:57:26.405Z,64.00
2023-06-07T05:58:04.971Z,65.67
2023-06-07T05:58:36.961Z,67.67
2023-06-07T05:59:08.879Z,67.67
2023-06-07T05:59:40.781Z,65.00
2023-06-07T06:00:13.128Z,56.67
2023-06-07T06:00:45.541Z,47.67
2023-06-07T06:01:18.328Z,45.67
2023-06-07T06:01:50.511Z,46.67
2023-06-07T06:02:24.373Z,47.33
2023-06-07T06:02:57.787Z,47.00
2023-06-07T06:03:29.904Z,49.67
2023-06-07T06:04:02.518Z,46.00
2023-06-07T06:04:35.029Z,41.67
2023-06-07T06:05:07.742Z,39.33
2023-06-07T06:05:39.666Z,40.00
2023-06-07T06:06:16.560Z,41.33
2023-06-07T06:06:49.489Z,43.00
2023-06-07T06:07:21.404Z,42.67
2023-06-07T06:07:53.726Z,43.00
2023-06-07T06:08:25.689Z,44.00
2023-06-07T06:08:57.592Z,44.67
2023-06-07T06:09:29.866Z,44.00
2023-06-07T06:10:02.039Z,44.00
2023-06-07T06:10:35.951Z,44.00
2023-06-07T06:11:13.381Z,44.67
2023-06-07T06:11:45.363Z,45.33
2023-06-07T06:12:17.311Z,46.00
2023-06-07T06:12:49.289Z,46.33
2023-06-07T06:13:21.215Z,47.00
2023-06-07T06:13:53.129Z,47.00
2023-06-07T06:14:26.348Z,45.33
2023-06-07T06:14:58.328Z,44.00
2023-06-07T06:15:30.403Z,43.00
2023-06-07T06:16:02.363Z,43.00
2023-06-07T06:16:34.329Z,44.00
2023-06-07T06:17:07.394Z,44.67
2023-06-07T06:17:39.519Z,46.33
2023-06-07T06:18:11.533Z,48.00
2023-06-07T06:18:43.642Z,49.67
2023-06-07T06:19:15.650Z,51.67
2023-06-07T06:19:47.550Z,52.67
2023-06-07T06:20:19.461Z,52.67
2023-06-07T06:20:51.581Z,52.00
2023-06-07T06:21:23.513Z,51.00
2023-06-07T06:21:55.618Z,50.00
2023-06-07T06:22:27.747Z,50.00
2023-06-07T06:23:00.333Z,50.67
2023-06-07T06:23:32.277Z,51.00
2023-06-07T06:24:04.512Z,52.00
2023-06-07T06:24:36.464Z,52.67
2023-06-07T06:25:08.550Z,52.00
2023-06-07T06:25:40.703Z,52.00
2023-06-07T06:26:12.748Z,52.00
2023-06-07T06:26:44.644Z,51.67
2023-06-07T06:27:17.170Z,50.67
2023-06-07T06:27:49.236Z,50.00
2023-06-07T06:28:22.395Z,50.00
2023-06-07T06:28:54.441Z,50.00
2023-06-07T06:29:26.360Z,50.00
2023-06-07T06:29:58.270Z,50.00
2023-06-07T06:30:30.876Z,50.67
2023-06-07T06:31:04.508Z,51.00
2023-06-07T06:31:37.013Z,50.67
2023-06-07T06:32:09.469Z,51.00
2023-06-07T06:32:41.428Z,51.00
2023-06-07T06:33:13.453Z,51.00
2023-06-07T06:33:46.105Z,51.00
2023-06-07T06:34:19.931Z,51.00
2023-06-07T06:34:51.883Z,50.00
2023-06-07T06:35:23.811Z,50.00
2023-06-07T06:35:55.768Z,50.00
2023-06-07T06:36:27.918Z,49.00
2023-06-07T06:37:01.169Z,49.00
2023-06-07T06:37:33.091Z,49.00
2023-06-07T06:38:05.089Z,49.00
2023-06-07T06:38:37.013Z,49.00
2023-06-07T06:39:09.460Z,49.00
2023-06-07T06:39:41.420Z,49.67
2023-06-07T06:40:13.649Z,51.33
2023-06-07T06:40:46.322Z,52.33
2023-06-07T06:41:18.275Z,55.00
2023-06-07T06:41:50.167Z,58.67
2023-06-07T06:42:22.120Z,60.00
2023-06-07T06:42:54.720Z,61.00
2023-06-07T06:43:26.993Z,64.00
2023-06-07T06:43:59.159Z,66.00
2023-06-07T06:44:31.221Z,66.00
2023-06-07T06:45:03.143Z,66.00
2023-06-07T06:45:35.088Z,67.00
2023-06-07T06:46:07.223Z,67.33
2023-06-07T06:46:39.255Z,66.67
2023-06-07T06:47:11.620Z,67.00
2023-06-07T06:47:43.621Z,68.33
2023-06-07T06:48:15.597Z,74.33
2023-06-07T06:48:55.764Z,89.67
2023-06-07T06:49:34.908Z,91.00
2023-06-07T06:50:18.527Z,90.00
2023-06-07T06:50:55.115Z,81.33
2023-06-07T06:51:27.119Z,82.67
2023-06-07T06:51:59.034Z,95.00
2023-06-07T06:52:30.947Z,109.33
2023-06-07T06:53:02.852Z,122.67
2023-06-07T06:53:34.753Z,115.67
2023-06-07T06:54:06.739Z,101.67
2023-06-07T06:54:38.697Z,94.33
2023-06-07T06:55:10.856Z,90.67
2023-06-07T06:55:42.751Z,81.33
2023-06-07T06:56:14.703Z,71.33
2023-06-07T06:56:46.678Z,66.33
2023-06-07T06:57:18.586Z,64.33
2023-06-07T06:57:50.810Z,61.00
2023-06-07T06:58:22.712Z,58.33
2023-06-07T06:58:54.598Z,58.33
2023-06-07T06:59:26.521Z,59.67
2023-06-07T06:59:59.839Z,61.67
2023-06-07T07:00:36.393Z,63.00
2023-06-07T07:01:09.186Z,64.33
2023-06-07T07:01:46.985Z,65.00
2023-06-07T07:02:19.205Z,66.00
2023-06-07T07:02:51.389Z,66.00
2023-06-07T07:03:23.477Z,66.67
2023-06-07T07:03:55.434Z,67.00
2023-06-07T07:04:27.481Z,67.00
2023-06-07T07:05:00.032Z,67.00
2023-06-07T07:05:32.094Z,67.33
2023-06-07T07:06:04.136Z,68.00